Aviation WX

[Source: ADDS]
METAR
KFKL 120508Z AUTO 25007KT 4SM -SN BR OVC014 M02/M03 A3003 RMK AO2 SNB0457 P0000 FZRANO =
KFKL 120520Z 1206/1306 VRB04KT 5SM BR OVC010 FM121400 15007KT P6SM BKN250 FM130300 16009KT P6SM OVC015
TAF
KFKL 120520Z 1206/1306 VRB04KT 5SM BR OVC010 FM121400 15007KT P6SM BKN250 FM130300 16009KT P6SM OVC015 =

Clarion Airport T-Shirts

small

EAA Chapter 994

EAA Chapter 994 is a local chapter of the national Experimental Aircraft Association.  Chapter membership is open to all persons interested in sport aviation. You do not need to be a pilot or aircraft owner to join.   Our Chapter sponsors the annual Autumn Leaf Festival Pancake Breakfast, and holds several Young Eagles events each year.  The Young Eagles events provide kids 8 to 17 years of age a positive aviation experience in the form of no cost aviation instruction, including flight in a general aviation aircraft.

WEbNatAvDAy
EAA member giving instruction on  aircraft wing rib construction during the 2011 National Aviation Day celebration.



 Dana web

 EAA member instructing on the art of rib building for airplane wings.


Crowd 1


Ed egg maker

 Ed the egg master.


Crowd 2


Pancake maker

 Let me show you how it's done Kim.


Crowd 3

 Important business discussion at the coffee stand.


Scott Jim

 

 



EAA Links

Chapter 994  web site -  http://994.eaachapter.org/

EAA National web site - http://www.eaa.org/

Young Eagles web site - http://www.youngeagles.org/